createdAt,value
2022-08-22T00:02:27.690Z,68.99
2022-08-22T00:02:49.713Z,63.46
2022-08-22T00:03:06.941Z,67.75
2022-08-22T00:05:06.640Z,68.58
2022-08-22T00:07:59.975Z,69.08
2022-08-22T00:10:43.349Z,69.09
2022-08-22T00:13:20.831Z,69.21
2022-08-22T00:16:02.955Z,69.57
2022-08-22T00:18:40.891Z,69.89
2022-08-22T00:21:18.192Z,69.75
2022-08-22T00:23:58.222Z,69.87
2022-08-22T00:26:49.085Z,69.99
2022-08-22T00:29:25.544Z,70.40
2022-08-22T00:32:11.230Z,70.00
2022-08-22T00:34:49.247Z,70.62
2022-08-22T00:37:28.106Z,70.07
2022-08-22T00:40:07.370Z,69.86
2022-08-22T00:43:08.549Z,70.09
2022-08-22T00:46:02.142Z,70.33
2022-08-22T00:49:32.008Z,70.78
2022-08-22T00:56:01.327Z,71.29
2022-08-22T00:59:22.850Z,71.31
2022-08-22T01:02:16.534Z,70.78
2022-08-22T01:05:07.705Z,71.22
2022-08-22T01:08:09.132Z,71.68
2022-08-22T01:11:03.542Z,71.97
2022-08-22T01:14:01.893Z,71.33
2022-08-22T01:16:54.845Z,71.46
2022-08-22T01:20:04.053Z,71.70
2022-08-22T01:23:20.443Z,71.67
2022-08-22T01:26:44.682Z,71.85
2022-08-22T01:30:02.494Z,71.61
2022-08-22T01:33:17.876Z,71.89
2022-08-22T01:36:45.597Z,72.25
2022-08-22T01:39:41.630Z,72.40
2022-08-22T01:42:45.028Z,72.87
2022-08-22T01:45:41.320Z,73.04
2022-08-22T01:48:18.562Z,73.27
2022-08-22T01:50:55.794Z,73.09
2022-08-22T01:53:42.548Z,73.14
2022-08-22T01:56:17.830Z,73.12
2022-08-22T01:58:59.817Z,73.85
2022-08-22T02:01:50.818Z,73.57
2022-08-22T02:04:36.651Z,73.47
2022-08-22T02:07:16.057Z,74.09
2022-08-22T02:10:08.264Z,74.53
2022-08-22T02:12:47.879Z,74.30
2022-08-22T02:15:29.102Z,73.81
2022-08-22T02:18:16.408Z,74.29
2022-08-22T02:21:15.319Z,74.57
2022-08-22T02:23:56.099Z,74.49
2022-08-22T02:26:43.426Z,74.48
2022-08-22T02:29:20.423Z,74.47
2022-08-22T02:31:58.521Z,74.97
2022-08-22T02:34:41.022Z,74.79
2022-08-22T02:37:19.385Z,74.93
2022-08-22T02:39:55.420Z,74.73
2022-08-22T02:42:38.574Z,75.23
2022-08-22T02:45:30.243Z,74.78
2022-08-22T02:48:08.202Z,74.73
2022-08-22T02:50:44.337Z,74.38
2022-08-22T02:53:21.523Z,74.64
2022-08-22T02:55:59.868Z,74.86
2022-08-22T02:58:46.033Z,75.17
2022-08-22T03:01:40.948Z,75.20
2022-08-22T03:05:00.339Z,75.25
2022-08-22T03:07:41.764Z,74.92
2022-08-22T03:10:28.529Z,74.62
2022-08-22T03:13:11.204Z,75.00
2022-08-22T03:15:51.817Z,75.48
2022-08-22T03:18:28.928Z,75.63
2022-08-22T03:21:16.915Z,75.01
2022-08-22T03:23:54.227Z,75.19
2022-08-22T03:26:31.517Z,75.01
2022-08-22T03:29:08.295Z,75.08
2022-08-22T03:32:07.429Z,75.54
2022-08-22T03:34:39.101Z,75.39
2022-08-22T03:37:20.522Z,75.63
2022-08-22T03:40:04.321Z,75.13
2022-08-22T03:43:06.697Z,75.64
2022-08-22T03:46:24.271Z,75.29
2022-08-22T03:49:40.560Z,75.60
2022-08-22T03:52:57.125Z,75.89
2022-08-22T03:55:46.508Z,76.38
2022-08-22T03:58:49.165Z,76.84
2022-08-22T04:01:50.881Z,76.71
2022-08-22T04:05:07.321Z,76.50
2022-08-22T04:08:26.459Z,77.26
2022-08-22T04:11:33.918Z,77.32
2022-08-22T04:14:25.487Z,76.99
2022-08-22T04:17:34.121Z,77.16
2022-08-22T04:20:32.351Z,76.61
2022-08-22T04:23:36.701Z,76.36
2022-08-22T04:26:17.144Z,75.88
2022-08-22T04:28:52.760Z,76.68
2022-08-22T04:31:32.753Z,77.09
2022-08-22T04:34:09.229Z,76.39
2022-08-22T04:36:50.762Z,76.63
2022-08-22T04:39:28.514Z,76.67
2022-08-22T04:42:29.088Z,76.44
2022-08-22T04:45:01.492Z,76.66
2022-08-22T04:47:37.057Z,77.10
2022-08-22T04:50:19.449Z,77.08
2022-08-22T04:53:12.537Z,76.20
2022-08-22T04:56:02.037Z,75.72
2022-08-22T04:59:00.999Z,76.22
2022-08-22T05:01:46.855Z,76.36
2022-08-22T05:04:22.477Z,76.15
2022-08-22T05:06:59.515Z,75.84
2022-08-22T05:09:37.535Z,75.39
2022-08-22T05:12:12.157Z,75.54
2022-08-22T05:14:47.046Z,75.61
2022-08-22T05:17:24.868Z,75.55
2022-08-22T05:19:59.317Z,75.51
2022-08-22T05:22:33.806Z,75.34
2022-08-22T05:25:13.755Z,75.32
2022-08-22T05:27:53.316Z,75.33
2022-08-22T05:30:31.454Z,74.99
2022-08-22T05:33:11.981Z,74.21
2022-08-22T05:35:50.083Z,74.15
2022-08-22T05:38:27.592Z,73.86
2022-08-22T05:41:08.892Z,73.66
2022-08-22T05:43:42.512Z,73.15
2022-08-22T05:46:20.811Z,73.25
2022-08-22T05:49:03.302Z,73.04
2022-08-22T05:51:55.249Z,72.51
2022-08-22T05:54:34.603Z,72.29
2022-08-22T05:57:19.413Z,71.42
2022-08-22T05:59:56.508Z,70.78
2022-08-22T06:02:40.413Z,70.48
2022-08-22T06:05:12.247Z,69.98
2022-08-22T06:07:48.363Z,69.99
2022-08-22T06:10:27.691Z,69.42
2022-08-22T06:13:11.569Z,69.60
2022-08-22T06:15:50.857Z,70.18
2022-08-22T06:18:29.310Z,68.38
2022-08-22T06:21:05.676Z,68.85
2022-08-22T06:23:43.707Z,68.11
2022-08-22T06:26:20.395Z,67.86
2022-08-22T06:29:00.653Z,66.79
2022-08-22T06:31:35.872Z,67.38
2022-08-22T06:34:11.095Z,66.76
2022-08-22T06:36:44.513Z,66.79
2022-08-22T06:39:23.417Z,65.85
2022-08-22T06:41:58.467Z,64.60
2022-08-22T06:44:37.155Z,65.06
2022-08-22T06:47:12.357Z,65.05
2022-08-22T06:49:45.873Z,64.54
2022-08-22T06:52:23.419Z,64.09
2022-08-22T06:55:03.182Z,63.51
2022-08-22T06:57:38.239Z,63.92
2022-08-22T07:00:17.249Z,62.78
2022-08-22T07:02:52.472Z,61.30
2022-08-22T07:05:26.425Z,61.33
2022-08-22T07:07:58.106Z,61.21
2022-08-22T07:10:28.624Z,60.18
2022-08-22T07:13:00.628Z,60.13
2022-08-22T07:15:38.796Z,59.02
2022-08-22T07:18:12.756Z,58.98
2022-08-22T07:20:46.734Z,57.90
2022-08-22T07:23:33.324Z,57.36
2022-08-22T07:26:20.414Z,56.61
2022-08-22T07:28:58.059Z,55.74
2022-08-22T07:31:38.643Z,54.98
2022-08-22T07:34:31.330Z,53.66
2022-08-22T07:37:06.828Z,52.46
2022-08-22T07:39:45.082Z,52.49
2022-08-22T07:42:20.378Z,50.64
2022-08-22T07:45:08.852Z,50.39
2022-08-22T07:47:59.333Z,49.60
2022-08-22T07:50:34.173Z,49.46
2022-08-22T07:53:12.032Z,48.17
2022-08-22T07:55:49.279Z,48.03
2022-08-22T07:58:21.473Z,46.93
2022-08-22T08:00:54.171Z,46.50
2022-08-22T08:03:32.075Z,45.72
2022-08-22T08:06:04.261Z,45.74
2022-08-22T08:08:38.529Z,44.88
2022-08-22T08:11:15.510Z,43.60
2022-08-22T08:13:49.086Z,43.77
2022-08-22T08:16:23.366Z,42.44
2022-08-22T08:19:00.401Z,41.14
2022-08-22T08:21:34.155Z,40.73
2022-08-22T08:24:06.254Z,38.39
2022-08-22T08:27:02.020Z,38.21
2022-08-22T08:29:31.063Z,36.97
2022-08-22T08:32:03.406Z,36.37
2022-08-22T08:34:36.577Z,35.20
2022-08-22T08:37:17.261Z,33.31
2022-08-22T08:39:58.740Z,32.71
2022-08-22T08:43:12.646Z,31.86
2022-08-22T08:46:03.857Z,30.52
2022-08-22T08:49:15.927Z,28.88
2022-08-22T08:52:14.077Z,27.70
2022-08-22T08:55:02.421Z,27.62
2022-08-22T08:58:06.720Z,26.72
2022-08-22T09:00:55.453Z,25.70
2022-08-22T09:04:15.632Z,25.60
2022-08-22T09:07:10.599Z,26.06
2022-08-22T09:10:06.344Z,25.13
2022-08-22T09:13:11.932Z,25.21
2022-08-22T09:16:06.736Z,25.82
2022-08-22T09:19:16.792Z,27.56
2022-08-22T09:22:14.589Z,26.62
2022-08-22T09:25:12.899Z,24.80
2022-08-22T09:27:57.909Z,24.22
2022-08-22T09:30:54.253Z,23.56
2022-08-22T09:33:28.299Z,24.12
2022-08-22T09:36:06.789Z,24.56
2022-08-22T09:38:58.010Z,24.37
2022-08-22T09:41:43.687Z,24.42
2022-08-22T09:44:33.809Z,25.11
2022-08-22T09:47:24.291Z,26.14
2022-08-22T09:50:06.899Z,27.41
2022-08-22T09:52:58.620Z,28.98
2022-08-22T09:55:50.877Z,30.02
2022-08-22T09:58:30.592Z,30.77
2022-08-22T10:01:09.656Z,31.27
2022-08-22T10:04:24.550Z,32.31
2022-08-22T10:07:08.554Z,32.65
2022-08-22T10:09:57.914Z,33.13
2022-08-22T10:12:44.782Z,33.67
2022-08-22T10:15:23.831Z,32.93
2022-08-22T10:18:12.269Z,33.64
2022-08-22T10:21:07.188Z,33.86
2022-08-22T10:23:46.230Z,34.04
2022-08-22T10:26:37.864Z,34.08
2022-08-22T10:29:43.160Z,33.15
2022-08-22T10:32:30.840Z,33.25
2022-08-22T10:35:06.939Z,32.97
2022-08-22T10:37:46.148Z,31.66
2022-08-22T10:40:24.636Z,31.56
2022-08-22T10:42:59.850Z,31.72
2022-08-22T10:45:39.029Z,31.75
2022-08-22T10:48:38.000Z,31.25
2022-08-22T10:51:20.526Z,30.50
2022-08-22T10:54:14.813Z,30.87
2022-08-22T10:56:59.364Z,30.07
2022-08-22T10:59:42.976Z,29.13
2022-08-22T11:02:42.238Z,28.85
2022-08-22T11:05:43.553Z,29.09
2022-08-22T11:08:48.904Z,28.46
2022-08-22T11:11:41.397Z,28.38
2022-08-22T11:14:53.231Z,27.13
2022-08-22T11:18:18.647Z,27.56
2022-08-22T11:21:02.138Z,27.57
2022-08-22T11:23:48.409Z,28.28
2022-08-22T11:26:46.757Z,28.09
2022-08-22T11:29:49.112Z,28.42
2022-08-22T11:32:37.692Z,28.48
2022-08-22T11:35:15.772Z,28.91
2022-08-22T11:37:54.844Z,28.85
2022-08-22T11:40:38.598Z,28.46
2022-08-22T11:43:37.726Z,27.98
2022-08-22T11:46:25.078Z,29.39
2022-08-22T11:49:32.936Z,30.11
2022-08-22T11:52:17.591Z,30.65
2022-08-22T11:55:19.572Z,31.07
2022-08-22T11:57:54.888Z,30.84
2022-08-22T12:00:36.039Z,31.31
2022-08-22T12:03:38.080Z,31.62
2022-08-22T12:06:56.040Z,32.25
2022-08-22T12:09:42.752Z,33.67
2022-08-22T12:12:29.710Z,33.70
2022-08-22T12:15:09.707Z,34.68
2022-08-22T12:18:22.610Z,34.76
2022-08-22T12:21:29.210Z,35.08
2022-08-22T12:24:35.786Z,35.38
2022-08-22T12:27:35.308Z,35.75
2022-08-22T12:30:16.246Z,35.56
2022-08-22T12:33:25.144Z,35.71
2022-08-22T12:36:22.967Z,35.25
2022-08-22T12:39:30.515Z,35.79
2022-08-22T12:42:27.351Z,34.89
2022-08-22T12:45:40.619Z,35.74
2022-08-22T12:48:28.391Z,36.18
2022-08-22T12:51:17.581Z,36.77
2022-08-22T12:54:31.290Z,36.25
2022-08-22T12:57:23.952Z,36.28
2022-08-22T12:59:58.799Z,37.04
2022-08-22T13:02:39.506Z,37.44
2022-08-22T13:05:19.802Z,37.60
2022-08-22T13:07:59.179Z,38.32
2022-08-22T13:10:45.128Z,37.43
2022-08-22T13:13:31.555Z,37.68
2022-08-22T13:16:11.802Z,37.82
2022-08-22T13:18:54.125Z,38.62
2022-08-22T13:21:32.044Z,38.89
2022-08-22T13:24:12.488Z,39.03
2022-08-22T13:26:59.009Z,39.83
2022-08-22T13:29:42.804Z,40.33
2022-08-22T13:32:26.616Z,40.01
2022-08-22T13:35:00.854Z,40.28
2022-08-22T13:37:42.242Z,40.20
2022-08-22T13:40:18.422Z,40.18
2022-08-22T13:43:09.232Z,40.18
2022-08-22T13:45:40.910Z,40.40
2022-08-22T13:48:15.009Z,40.34
2022-08-22T13:51:08.128Z,40.57
2022-08-22T13:54:01.004Z,40.37
2022-08-22T13:56:47.195Z,40.78
2022-08-22T13:59:50.316Z,40.96
2022-08-22T14:02:43.288Z,40.37
2022-08-22T14:05:23.449Z,40.13
2022-08-22T14:08:13.019Z,40.32
2022-08-22T14:10:52.249Z,39.93
2022-08-22T14:13:44.173Z,40.16
2022-08-22T14:16:29.623Z,40.35
2022-08-22T14:19:06.104Z,40.70
2022-08-22T14:21:43.976Z,41.09
2022-08-22T14:24:25.670Z,41.16
2022-08-22T14:27:05.480Z,41.31
2022-08-22T14:29:45.938Z,41.38
2022-08-22T14:32:45.956Z,40.88
2022-08-22T14:35:35.340Z,41.09
2022-08-22T14:38:29.833Z,40.71
2022-08-22T14:41:06.020Z,40.87
2022-08-22T14:43:54.630Z,40.39
2022-08-22T14:46:33.205Z,40.48
2022-08-22T14:49:26.960Z,40.23
2022-08-22T14:52:19.785Z,39.98
2022-08-22T14:54:51.038Z,40.67
2022-08-22T14:57:21.569Z,40.19
2022-08-22T14:59:53.948Z,40.13
2022-08-22T15:02:31.754Z,40.69
2022-08-22T15:05:19.287Z,40.85
2022-08-22T15:07:59.451Z,41.37
2022-08-22T15:10:34.291Z,41.61
2022-08-22T15:13:08.841Z,41.73
2022-08-22T15:15:49.338Z,41.53
2022-08-22T15:18:38.125Z,41.90
2022-08-22T15:21:16.057Z,41.08
2022-08-22T15:23:49.666Z,41.63
2022-08-22T15:26:30.855Z,41.16
2022-08-22T15:29:09.857Z,41.68
2022-08-22T15:31:42.027Z,42.31
2022-08-22T15:34:25.180Z,42.05
2022-08-22T15:37:32.625Z,41.85
2022-08-22T15:40:14.216Z,42.00
2022-08-22T15:42:50.206Z,41.79
2022-08-22T15:45:34.740Z,42.11
2022-08-22T15:48:11.594Z,42.33
2022-08-22T15:50:58.803Z,42.37
2022-08-22T15:53:48.060Z,42.97
2022-08-22T15:56:32.172Z,42.88
2022-08-22T15:59:53.307Z,43.38
2022-08-22T16:02:34.914Z,43.48
2022-08-22T16:05:28.328Z,44.18
2022-08-22T16:08:07.331Z,43.63
2022-08-22T16:10:44.541Z,44.02
2022-08-22T16:13:35.037Z,44.67
2022-08-22T16:16:13.548Z,45.07
2022-08-22T16:19:23.634Z,44.76
2022-08-22T16:22:20.585Z,44.73
2022-08-22T16:25:10.264Z,45.39
2022-08-22T16:27:58.517Z,45.14
2022-08-22T16:30:40.156Z,45.43
2022-08-22T16:33:18.403Z,45.50
2022-08-22T16:36:42.185Z,45.65
2022-08-22T16:39:31.534Z,45.67
2022-08-22T16:42:38.212Z,45.15
2022-08-22T16:45:22.561Z,45.59
2022-08-22T16:47:58.721Z,46.35
2022-08-22T16:50:36.729Z,45.84
2022-08-22T16:53:15.053Z,46.54
2022-08-22T16:55:55.379Z,46.89
2022-08-22T16:59:03.352Z,47.40
2022-08-22T17:02:02.463Z,48.26
2022-08-22T17:04:43.570Z,48.46
2022-08-22T17:07:33.046Z,48.89
2022-08-22T17:10:45.133Z,49.57
2022-08-22T17:13:42.422Z,49.68
2022-08-22T17:16:33.444Z,49.98
2022-08-22T17:19:23.926Z,50.47
2022-08-22T17:22:00.446Z,51.08
2022-08-22T17:24:42.577Z,51.06
2022-08-22T17:27:26.299Z,51.41
2022-08-22T17:30:07.135Z,51.51
2022-08-22T17:33:02.200Z,51.68
2022-08-22T17:36:04.006Z,51.77
2022-08-22T17:38:48.957Z,51.53
2022-08-22T17:41:46.020Z,52.36
2022-08-22T17:44:27.489Z,52.02
2022-08-22T17:47:04.829Z,51.71
2022-08-22T17:49:56.590Z,51.84
2022-08-22T17:52:38.136Z,52.42
2022-08-22T17:55:18.089Z,52.89
2022-08-22T17:57:57.059Z,52.65
2022-08-22T18:00:33.221Z,53.24
2022-08-22T18:03:11.194Z,52.72
2022-08-22T18:05:53.613Z,53.12
2022-08-22T18:11:30.562Z,53.30
2022-08-22T18:14:16.689Z,53.02
2022-08-22T18:16:51.017Z,52.98
2022-08-22T18:19:41.946Z,52.46
2022-08-22T18:22:30.191Z,52.78
2022-08-22T18:25:11.322Z,52.40
2022-08-22T18:27:51.546Z,52.71
2022-08-22T18:30:26.822Z,53.29
2022-08-22T18:33:04.275Z,53.33
2022-08-22T18:35:44.532Z,53.28
2022-08-22T18:38:29.610Z,53.27
2022-08-22T18:41:15.869Z,53.74
2022-08-22T18:43:50.812Z,54.03
2022-08-22T18:46:36.487Z,53.92
2022-08-22T18:49:16.166Z,54.28
2022-08-22T18:51:46.760Z,54.54
2022-08-22T18:54:40.398Z,54.57
2022-08-22T18:57:38.786Z,54.97
2022-08-22T19:00:17.035Z,53.37
2022-08-22T19:03:14.358Z,52.71
2022-08-22T19:06:28.498Z,52.20
2022-08-22T19:10:02.412Z,51.96
2022-08-22T19:13:00.466Z,52.03
2022-08-22T19:15:47.030Z,51.42
2022-08-22T19:18:40.592Z,49.94
2022-08-22T19:21:45.677Z,49.76
2022-08-22T19:24:39.519Z,49.22
2022-08-22T19:27:31.329Z,49.37
2022-08-22T19:30:09.958Z,49.72
2022-08-22T19:33:03.293Z,50.12
2022-08-22T19:36:07.106Z,50.01
2022-08-22T19:39:09.079Z,49.21
2022-08-22T19:41:58.590Z,49.21
2022-08-22T19:44:45.847Z,48.92
2022-08-22T19:47:30.447Z,49.49
2022-08-22T19:50:07.556Z,49.27
2022-08-22T19:52:54.038Z,48.85
2022-08-22T19:55:34.537Z,48.73
2022-08-22T19:58:13.273Z,48.91
2022-08-22T20:00:54.827Z,49.00
2022-08-22T20:03:45.543Z,49.08
2022-08-22T20:06:43.601Z,49.11
2022-08-22T20:09:39.117Z,49.00
2022-08-22T20:12:18.802Z,49.41
2022-08-22T20:14:51.658Z,49.49
2022-08-22T20:17:43.751Z,50.41
2022-08-22T20:20:40.970Z,50.51
2022-08-22T20:23:20.613Z,50.33
2022-08-22T20:25:56.100Z,50.91
2022-08-22T20:28:44.421Z,51.04
2022-08-22T20:31:23.080Z,51.45
2022-08-22T20:34:00.529Z,51.61
2022-08-22T20:36:34.708Z,51.57
2022-08-22T20:39:12.141Z,51.26
2022-08-22T20:41:45.681Z,51.40
2022-08-22T20:44:21.798Z,51.43
2022-08-22T20:46:59.086Z,52.01
2022-08-22T20:49:34.618Z,52.63
2022-08-22T20:52:12.746Z,52.65
2022-08-22T20:54:44.470Z,53.16
2022-08-22T20:57:18.713Z,53.19
2022-08-22T20:59:55.912Z,53.30
2022-08-22T21:02:31.594Z,53.84
2022-08-22T21:05:06.107Z,53.90
2022-08-22T21:07:42.107Z,54.46
2022-08-22T21:10:35.395Z,54.57
2022-08-22T21:13:12.418Z,54.39
2022-08-22T21:15:47.574Z,54.33
2022-08-22T21:18:29.702Z,54.07
2022-08-22T21:21:17.619Z,54.35
2022-08-22T21:23:57.380Z,54.33
2022-08-22T21:26:33.243Z,54.56
2022-08-22T21:29:07.156Z,55.07
2022-08-22T21:31:44.753Z,55.16
2022-08-22T21:34:18.285Z,56.03
2022-08-22T21:36:48.590Z,55.56
2022-08-22T21:39:26.859Z,54.72
2022-08-22T21:42:14.428Z,55.30
2022-08-22T21:44:50.560Z,55.24
2022-08-22T21:47:31.684Z,56.06
2022-08-22T21:50:18.783Z,56.37
2022-08-22T21:53:10.356Z,55.36
2022-08-22T21:55:48.085Z,56.39
2022-08-22T21:58:36.464Z,56.98
2022-08-22T22:01:30.628Z,57.95
2022-08-22T22:04:02.675Z,57.85
2022-08-22T22:06:32.952Z,57.41
2022-08-22T22:09:03.135Z,58.18
2022-08-22T22:11:36.780Z,58.83
2022-08-22T22:14:07.448Z,59.22
2022-08-22T22:16:38.499Z,59.29
2022-08-22T22:19:11.747Z,59.01
2022-08-22T22:21:41.939Z,59.15
2022-08-22T22:24:12.163Z,59.18
2022-08-22T22:26:45.001Z,59.45
2022-08-22T22:29:15.377Z,59.85
2022-08-22T22:31:45.773Z,59.08
2022-08-22T22:34:16.260Z,59.72
2022-08-22T22:36:47.316Z,59.75
2022-08-22T22:39:17.502Z,60.08
2022-08-22T22:41:50.406Z,59.86
2022-08-22T22:44:21.584Z,60.03
2022-08-22T22:46:52.630Z,60.72
2022-08-22T22:49:23.031Z,60.60
2022-08-22T22:51:53.290Z,60.05
2022-08-22T22:54:27.182Z,60.08
2022-08-22T22:57:00.772Z,60.43
2022-08-22T22:59:32.383Z,61.12
2022-08-22T23:02:06.754Z,60.94
2022-08-22T23:04:40.026Z,60.85
2022-08-22T23:07:11.670Z,60.68
2022-08-22T23:09:44.535Z,61.03
2022-08-22T23:12:19.199Z,60.83
2022-08-22T23:14:52.470Z,60.99
2022-08-22T23:17:23.088Z,61.19
2022-08-22T23:19:54.501Z,61.26
2022-08-22T23:22:24.681Z,61.67
2022-08-22T23:24:54.868Z,61.22
2022-08-22T23:27:27.781Z,60.92
2022-08-22T23:29:58.080Z,61.78
2022-08-22T23:32:28.426Z,62.37
2022-08-22T23:34:58.792Z,61.83
2022-08-22T23:37:29.341Z,61.81
2022-08-22T23:39:59.633Z,62.20
2022-08-22T23:42:32.432Z,62.18
2022-08-22T23:45:02.595Z,62.38
2022-08-22T23:47:32.791Z,62.28
2022-08-22T23:50:05.902Z,63.17
2022-08-22T23:52:36.725Z,63.79
2022-08-22T23:55:08.067Z,63.23
2022-08-22T23:57:40.984Z,63.10
